Terminal Aerodrome Forecast
Issued by NWS Duluth, MN

Home | Current Version | Previous Version | Text Only | Print | Product List | Glossary On
Versions: 1 2 3 4 5 6 7 8 9 10 11 12 13 14 15 16 17 18 19 20 21 22 23 24
000
FTUS43 KDLH 282300
TAFDLH
TAF
KDLH 282333Z 2900/2924 20015G21KT P6SM SCT200
     FM290400 20015G22KT P6SM BKN140 WS020/20045KT
     FM290900 21017G25KT 6SM -RA BR SCT025 OVC040
     FM291100 22015G21KT 6SM -RA BR SCT007 OVC013
     FM291700 30017G27KT 6SM -RA SCT025 OVC035
     FM291900 30020G28KT P6SM BKN050=

USA.gov is the U.S. government's official web portal to all federal, state and local government web resources and services.